Time;durP1;ratioP1;P1;durP2;ratioP2;P2;SDS_P1;SDS_P2;PMS_P1;PMS_P2;Temp;Humidity;BMP_temperature;BMP_pressure;BME280_temperature;BME280_humidity;BME280_pressure;Samples;Min_cycle;Max_cycle;Signal;HPM_P1;HPM_P2
2023/03/18 00:06:02;;;;;;;;;;;12.40;99.90;;;;;;5015111;28;19916;-83
2023/03/18 01:02:32;;;;;;;;;;;;;;;;;;;;;
2023/03/18 01:12:06;;;;;;;;;;;12.50;99.90;;;;;;5054444;28;19960;-82
2023/03/18 01:18:40;;;;;;;;;;;12.50;99.90;;;;;;5054631;28;20304;-83
2023/03/18 01:37:45;;;;;;;;;;;12.20;99.90;;;;;;5049724;28;19928;-84
2023/03/18 01:40:49;;;;;;;;;;;;;;;;;;;;;
2023/03/18 01:53:17;;;;;;;;;;;12.30;99.90;;;;;;4996921;28;20113;-84
2023/03/18 01:56:08;;;;;;;;;;;12.30;99.90;;;;;;4996407;28;19913;-84
2023/03/18 02:11:17;;;;;;;;;;;12.30;99.90;;;;;;4972028;28;19956;-83
2023/03/18 02:14:34;;;;;;;;;;;12.30;99.90;;;;;;4983050;28;19973;-84
2023/03/18 02:17:25;;;;;;;;;;;;;;;;;;;;;
2023/03/18 02:26:43;;;;;;;;;;;;;;;;;;;;;
2023/03/18 02:36:06;;;;;;;;;;;11.80;99.90;;;;;;5016686;28;20017;-84
2023/03/18 02:39:02;;;;;;;;;;;11.80;99.90;;;;;;5016661;28;19910;-84
2023/03/18 02:41:58;;;;;;;;;;;11.70;99.90;;;;;;4998815;28;19921;-84
2023/03/18 02:47:52;;;;;;;;;;;11.60;99.90;;;;;;4982041;28;19910;-84
2023/03/18 02:50:53;;;;;;;;;;;11.50;99.90;;;;;;4940875;29;20387;-84
2023/03/18 02:59:50;;;;;;;;;;;11.40;99.90;;;;;;4995910;28;20019;-83
2023/03/18 03:02:46;;;;;;;;;;;11.40;99.90;;;;;;5056672;28;19940;-83
2023/03/18 03:08:41;;;;;;;;;;;;;;;;;;;;;
2023/03/18 03:11:51;;;;;;;;;;;11.30;99.90;;;;;;5056686;28;20007;-84
2023/03/18 03:14:31;;;;;;;;;;;11.20;99.90;;;;;;5030964;28;20293;-84
2023/03/18 03:17:35;;;;;;;;;;;11.20;99.90;;;;;;5039831;28;19909;-84
2023/03/18 03:20:39;;;;;;;;;;;11.20;99.90;;;;;;5038326;28;19917;-83
2023/03/18 03:29:17;;;;;;;;;;;11.00;99.90;;;;;;5055271;28;19916;-84
2023/03/18 03:34:59;;;;;;;;;;;11.00;99.90;;;;;;5055353;28;19909;-84
2023/03/18 03:37:45;;;;;;;;;;;11.00;99.90;;;;;;5056097;28;20384;-84
2023/03/18 03:40:14;;;;;;;;;;;10.90;99.90;;;;;;5037805;28;20354;-84
2023/03/18 03:42:45;;;;;;;;;;;10.90;99.90;;;;;;5037528;28;19909;-84
2023/03/18 03:45:23;;;;;;;;;;;10.90;99.90;;;;;;5037540;28;19976;-84
2023/03/18 03:48:23;;;;;;;;;;;10.90;99.90;;;;;;5059801;28;20368;-83
2023/03/18 03:53:47;;;;;;;;;;;10.90;99.90;;;;;;5059415;28;19916;-83
2023/03/18 03:56:31;;;;;;;;;;;;;;;;;;;;;
2023/03/18 03:59:14;;;;;;;;;;;10.80;99.90;;;;;;5058868;28;19995;-84
2023/03/18 04:01:49;;;;;;;;;;;10.80;99.90;;;;;;5039472;28;19916;-83
2023/03/18 04:04:45;;;;;;;;;;;10.80;99.90;;;;;;5046171;28;19931;-84
2023/03/18 04:07:36;;;;;;;;;;;10.80;99.90;;;;;;5040987;28;19920;-83
2023/03/18 04:10:04;;;;;;;;;;;10.80;99.90;;;;;;5034134;28;19909;-84
2023/03/18 04:13:03;;;;;;;;;;;10.80;99.90;;;;;;5058135;28;19951;-84
2023/03/18 04:15:52;;;;;;;;;;;;;;;;;;;;;
2023/03/18 04:18:59;;;;;;;;;;;10.70;99.90;;;;;;5058047;28;19915;-84
2023/03/18 04:24:51;;;;;;;;;;;10.70;99.90;;;;;;5057499;28;19913;-83
2023/03/18 04:27:24;;;;;;;;;;;10.70;99.90;;;;;;5038728;28;19909;-83
2023/03/18 04:30:09;;;;;;;;;;;10.60;99.90;;;;;;5057345;28;19909;-83
2023/03/18 04:32:57;;;;;;;;;;;;;;;;;;;;;
2023/03/18 04:35:32;;;;;;;;;;;10.60;99.90;;;;;;5057596;28;19915;-84
2023/03/18 04:38:31;;;;;;;;;;;;;;;;;;;;;
2023/03/18 04:44:03;;;;;;;;;;;10.80;99.90;;;;;;5058095;28;19917;-83
2023/03/18 04:46:38;;;;;;;;;;;10.90;99.90;;;;;;5056341;28;19908;-83
2023/03/18 04:49:49;;;;;;;;;;;;;;;;;;;;;
2023/03/18 04:52:41;;;;;;;;;;;11.00;99.90;;;;;;5057106;28;19999;-83
2023/03/18 04:55:19;;;;;;;;;;;11.00;99.90;;;;;;5032045;28;19909;-84
2023/03/18 04:57:56;;;;;;;;;;;11.00;99.90;;;;;;5056423;28;20007;-84
2023/03/18 05:07:04;;;;;;;;;;;11.00;99.90;;;;;;5042038;28;19912;-84
2023/03/18 05:10:01;;;;;;;;;;;10.90;99.90;;;;;;5054626;28;19948;-84
2023/03/18 05:12:47;;;;;;;;;;;10.90;99.90;;;;;;5038020;28;19908;-84
2023/03/18 05:16:08;;;;;;;;;;;10.80;99.90;;;;;;5035699;28;19923;-83
2023/03/18 05:18:50;;;;;;;;;;;10.80;99.90;;;;;;5050112;28;20391;-84
2023/03/18 05:21:22;;;;;;;;;;;10.80;99.90;;;;;;5035223;28;19991;-84
2023/03/18 05:23:58;;;;;;;;;;;10.80;99.90;;;;;;5055649;28;19909;-84
2023/03/18 05:26:56;;;;;;;;;;;10.90;99.90;;;;;;5037303;28;19908;-83
2023/03/18 05:30:05;;;;;;;;;;;10.80;99.90;;;;;;5050366;28;19909;-84
2023/03/18 05:35:28;;;;;;;;;;;10.70;99.90;;;;;;4981064;28;19972;-83
2023/03/18 05:38:27;;;;;;;;;;;10.70;99.90;;;;;;5034914;28;19909;-84
2023/03/18 05:41:01;;;;;;;;;;;10.70;99.90;;;;;;5035303;28;20007;-83
2023/03/18 05:43:47;;;;;;;;;;;10.70;99.90;;;;;;5035630;28;19908;-84
2023/03/18 05:46:25;;;;;;;;;;;10.70;99.90;;;;;;5036668;28;20261;-84
2023/03/18 05:49:13;;;;;;;;;;;10.70;99.90;;;;;;5036230;28;20325;-84
2023/03/18 06:00:46;;;;;;;;;;;;;;;;;;;;;
2023/03/18 06:03:25;;;;;;;;;;;;;;;;;;;;;
2023/03/18 06:06:02;;;;;;;;;;;10.60;99.90;;;;;;5053562;28;19919;-83
2023/03/18 06:15:06;;;;;;;;;;;;;;;;;;;;;
2023/03/18 06:20:45;;;;;;;;;;;10.60;99.90;;;;;;5052821;28;20284;-84
2023/03/18 06:27:12;;;;;;;;;;;10.70;99.90;;;;;;5053871;28;19916;-83
2023/03/18 06:30:04;;;;;;;;;;;10.70;99.90;;;;;;5053316;28;19909;-83
2023/03/18 06:33:17;;;;;;;;;;;10.80;99.90;;;;;;5051200;28;19909;-83
2023/03/18 06:36:04;;;;;;;;;;;;;;;;;;;;;
2023/03/18 06:38:46;;;;;;;;;;;10.90;99.90;;;;;;5053015;28;19909;-83
2023/03/18 06:41:40;;;;;;;;;;;10.90;99.90;;;;;;5032699;28;20501;-83
2023/03/18 06:44:24;;;;;;;;;;;11.00;99.90;;;;;;5035061;28;20368;-84
2023/03/18 06:47:07;;;;;;;;;;;11.10;99.90;;;;;;5051207;28;20561;-84
2023/03/18 06:49:41;;;;;;;;;;;11.20;99.90;;;;;;5052801;28;20012;-84
2023/03/18 06:52:13;;;;;;;;;;;11.20;99.90;;;;;;5032317;28;19959;-84
2023/03/18 06:57:48;;;;;;;;;;;11.30;99.90;;;;;;5053243;28;19936;-84
2023/03/18 07:11:35;;;;;;;;;;;11.30;99.90;;;;;;5213405;22;25552362;-85
2023/03/18 07:14:18;;;;;;;;;;;11.90;99.90;;;;;;6316880;22;20368;-84
2023/03/18 07:16:49;;;;;;;;;;;11.90;99.90;;;;;;6287428;22;20320;-84
2023/03/18 07:19:29;;;;;;;;;;;12.00;99.90;;;;;;6289020;22;19915;-84
2023/03/18 07:22:07;;;;;;;;;;;12.00;99.90;;;;;;6288914;22;19979;-84
2023/03/18 07:24:39;;;;;;;;;;;12.10;99.90;;;;;;6288461;22;20424;-84
2023/03/18 07:27:16;;;;;;;;;;;12.20;99.90;;;;;;6284610;22;20241;-85
2023/03/18 07:32:37;;;;;;;;;;;12.30;99.90;;;;;;6316077;22;19903;-85
2023/03/18 07:35:27;;;;;;;;;;;12.40;99.90;;;;;;6316655;22;19926;-84
2023/03/18 07:38:07;;;;;;;;;;;12.50;99.90;;;;;;6288294;22;20287;-84
2023/03/18 07:40:45;;;;;;;;;;;12.60;99.90;;;;;;6287875;22;19907;-84
2023/03/18 07:43:29;;;;;;;;;;;12.70;99.90;;;;;;6288311;22;19907;-84
2023/03/18 07:46:03;;;;;;;;;;;12.80;99.90;;;;;;6287938;22;19903;-84
2023/03/18 07:48:50;;;;;;;;;;;13.00;99.90;;;;;;6287892;22;19903;-84
2023/03/18 07:51:34;;;;;;;;;;;13.10;99.90;;;;;;6289048;22;20322;-84
2023/03/18 07:54:16;;;;;;;;;;;13.20;99.90;;;;;;6316399;22;19903;-84
2023/03/18 07:57:10;;;;;;;;;;;13.30;99.90;;;;;;6289403;22;19903;-84
2023/03/18 07:59:58;;;;;;;;;;;;;;;;;;;;;
2023/03/18 08:02:39;;;;;;;;;;;13.50;99.90;;;;;;6315704;22;19986;-84
2023/03/18 08:05:34;;;;;;;;;;;13.70;99.90;;;;;;6288772;22;19981;-83
2023/03/18 08:08:14;;;;;;;;;;;13.80;99.90;;;;;;6316841;22;20252;-85
2023/03/18 08:10:45;;;;;;;;;;;13.80;99.90;;;;;;6286838;22;19922;-84
2023/03/18 08:13:14;;;;;;;;;;;13.90;99.90;;;;;;6281853;22;19903;-83
2023/03/18 08:15:49;;;;;;;;;;;14.00;99.90;;;;;;6282432;22;19903;-86
2023/03/18 08:18:17;;;;;;;;;;;14.00;99.90;;;;;;6310537;22;20339;-85
2023/03/18 08:24:20;;;;;;;;;;;14.20;99.90;;;;;;6299519;22;19907;-85
2023/03/18 08:26:49;;;;;;;;;;;14.30;99.90;;;;;;6281355;22;19907;-86
2023/03/18 08:29:49;;;;;;;;;;;14.40;99.90;;;;;;6281139;22;19903;-84
2023/03/18 08:32:26;;;;;;;;;;;14.40;99.90;;;;;;6325119;22;19985;-85
2023/03/18 08:34:54;;;;;;;;;;;14.70;99.90;;;;;;6314552;22;20287;-86
2023/03/18 08:37:40;;;;;;;;;;;14.90;99.90;;;;;;6285575;22;19903;-85
2023/03/18 08:40:08;;;;;;;;;;;15.10;99.90;;;;;;6312173;22;19938;-85
2023/03/18 08:42:39;;;;;;;;;;;15.20;99.90;;;;;;6285873;22;19911;-86
2023/03/18 08:45:08;;;;;;;;;;;15.40;99.90;;;;;;6283995;22;19903;-85
2023/03/18 08:47:34;;;;;;;;;;;15.50;99.90;;;;;;6286868;22;19902;-86
2023/03/18 08:49:59;;;;;;;;;;;15.70;99.90;;;;;;6286074;22;19982;-86
2023/03/18 08:52:27;;;;;;;;;;;15.80;99.90;;;;;;6285592;22;19951;-85
2023/03/18 08:55:03;;;;;;;;;;;15.80;99.90;;;;;;6316098;22;19903;-85
2023/03/18 08:57:38;;;;;;;;;;;16.00;99.90;;;;;;6286028;22;19907;-85
2023/03/18 09:00:04;;;;;;;;;;;16.00;99.90;;;;;;6285430;22;19913;-84
2023/03/18 09:06:21;;;;;;;;;;;;;;;;;;;;;
2023/03/18 10:54:58;;;;;;;;;;;35.70;43.40;;;;;;6148712;23;19921;-81
2023/03/18 10:57:24;;;;;;;;;;;36.10;42.80;;;;;;6121792;23;20277;-82
2023/03/18 10:59:50;;;;;;;;;;;37.00;40.30;;;;;;6125052;23;19916;-82
2023/03/18 11:02:18;;;;;;;;;;;37.30;39.60;;;;;;6149905;23;19905;-82
2023/03/18 11:04:47;;;;;;;;;;;37.50;46.50;;;;;;6150946;23;19920;-82
2023/03/18 11:07:18;;;;;;;;;;;37.00;38.30;;;;;;6152681;23;19928;-81
2023/03/18 11:09:44;;;;;;;;;;;37.00;37.60;;;;;;6124671;23;20375;-84
2023/03/18 11:12:15;;;;;;;;;;;35.60;38.90;;;;;;6123034;23;19904;-84
2023/03/18 11:14:45;;;;;;;;;;;35.30;39.10;;;;;;6123857;23;20464;-83
2023/03/18 11:17:18;;;;;;;;;;;35.20;38.20;;;;;;6150069;23;19965;-83
2023/03/18 11:19:46;;;;;;;;;;;33.70;39.30;;;;;;6150143;23;19920;-83
2023/03/18 11:22:21;;;;;;;;;;;32.30;40.90;;;;;;6149598;23;19904;-84
2023/03/18 11:24:59;;;;;;;;;;;30.50;41.30;;;;;;6123293;23;20330;-84
2023/03/18 11:27:28;;;;;;;;;;;29.60;43.30;;;;;;6149012;23;20285;-84
2023/03/18 11:30:04;;;;;;;;;;;30.20;43.90;;;;;;6149862;23;19913;-83
2023/03/18 11:32:30;;;;;;;;;;;30.70;44.20;;;;;;6149135;23;19911;-83
2023/03/18 11:34:56;;;;;;;;;;;30.00;43.40;;;;;;6123860;23;19920;-84
2023/03/18 11:37:25;;;;;;;;;;;28.70;44.20;;;;;;6123900;23;19905;-84
2023/03/18 11:39:51;;;;;;;;;;;27.70;45.70;;;;;;6124235;23;19908;-83
2023/03/18 11:42:19;;;;;;;;;;;26.60;47.50;;;;;;6123605;23;19993;-83
2023/03/18 11:44:45;;;;;;;;;;;25.50;48.80;;;;;;6150530;23;19915;-82
2023/03/18 11:47:17;;;;;;;;;;;25.00;51.00;;;;;;6153145;23;19904;-83
2023/03/18 11:49:43;;;;;;;;;;;25.20;53.10;;;;;;6153831;23;19913;-82
2023/03/18 11:52:27;;;;;;;;;;;25.70;52.90;;;;;;6126170;23;19905;-82
2023/03/18 11:55:09;;;;;;;;;;;25.60;52.30;;;;;;6152110;23;20222;-85
2023/03/18 11:57:53;;;;;;;;;;;25.10;52.50;;;;;;6151286;22;20326;-85
2023/03/18 12:00:32;;;;;;;;;;;24.70;53.60;;;;;;6254544;22;19905;-85
2023/03/18 12:03:08;;;;;;;;;;;24.40;54.40;;;;;;6256775;22;19905;-84
2023/03/18 12:05:34;;;;;;;;;;;;;;;;;;6152770;22;19954;-84
2023/03/18 12:08:28;;;;;;;;;;;23.80;54.90;;;;;;6152425;23;19955;-82
2023/03/18 12:11:13;;;;;;;;;;;24.20;55.90;;;;;;6151876;22;19920;-82
2023/03/18 12:13:39;;;;;;;;;;;24.70;55.50;;;;;;6254504;22;20327;-83
2023/03/18 12:16:15;;;;;;;;;;;25.00;55.00;;;;;;6255779;22;19966;-83
2023/03/18 12:18:53;;;;;;;;;;;24.80;54.80;;;;;;6151829;22;19928;-82
2023/03/18 12:21:22;;;;;;;;;;;25.00;55.80;;;;;;6150692;22;19932;-82
2023/03/18 12:23:50;;;;;;;;;;;25.20;55.20;;;;;;6151979;22;19932;-83
2023/03/18 12:26:20;;;;;;;;;;;25.10;54.70;;;;;;6255212;22;20245;-83
2023/03/18 12:28:48;;;;;;;;;;;24.80;54.10;;;;;;6152402;22;20014;-83
2023/03/18 12:31:32;;;;;;;;;;;24.90;54.40;;;;;;6151019;22;19908;-83
2023/03/18 12:34:09;;;;;;;;;;;25.40;54.50;;;;;;6254923;22;19908;-83
2023/03/18 12:36:53;;;;;;;;;;;25.30;53.30;;;;;;6152175;22;20322;-83
2023/03/18 12:39:19;;;;;;;;;;;24.90;55.10;;;;;;6152359;22;19928;-84
2023/03/18 12:41:56;;;;;;;;;;;24.70;54.60;;;;;;6150845;22;19909;-82
2023/03/18 12:44:41;;;;;;;;;;;24.30;55.60;;;;;;6151346;22;19905;-82
2023/03/18 12:47:09;;;;;;;;;;;24.50;56.50;;;;;;6152314;23;19912;-82
2023/03/18 12:49:40;;;;;;;;;;;24.60;55.60;;;;;;6151744;22;19916;-83
2023/03/18 12:52:26;;;;;;;;;;;24.20;55.30;;;;;;6150988;22;19925;-83
2023/03/18 12:54:57;;;;;;;;;;;23.70;55.80;;;;;;6150939;22;20288;-83
2023/03/18 12:57:31;;;;;;;;;;;22.90;57.00;;;;;;6253676;22;19908;-83
2023/03/18 13:00:00;;;;;;;;;;;22.30;57.20;;;;;;6151542;22;19905;-83
2023/03/18 13:02:42;;;;;;;;;;;22.00;59.70;;;;;;6150542;22;19905;-84
2023/03/18 13:05:30;;;;;;;;;;;21.60;62.70;;;;;;6253995;22;19906;-83
2023/03/18 13:08:18;;;;;;;;;;;21.60;64.10;;;;;;6253751;22;19912;-84
2023/03/18 13:10:45;;;;;;;;;;;21.40;63.50;;;;;;6151073;22;19966;-84
2023/03/18 13:13:12;;;;;;;;;;;21.30;65.70;;;;;;6252914;22;19916;-84
2023/03/18 13:15:43;;;;;;;;;;;21.10;67.10;;;;;;6253739;22;19905;-83
2023/03/18 13:18:21;;;;;;;;;;;20.80;67.60;;;;;;6253706;22;20319;-84
2023/03/18 13:20:48;;;;;;;;;;;20.40;73.10;;;;;;6151227;22;19905;-81
2023/03/18 13:23:26;;;;;;;;;;;20.10;76.30;;;;;;6151062;22;19908;-81
2023/03/18 13:26:10;;;;;;;;;;;20.10;86.50;;;;;;6151730;22;19909;-81
2023/03/18 13:28:38;;;;;;;;;;;20.00;90.70;;;;;;6151257;23;19905;-82
2023/03/18 13:31:33;;;;;;;;;;;19.90;94.30;;;;;;6151703;22;20284;-81
2023/03/18 13:37:06;;;;;;;;;;;19.50;96.40;;;;;;6274487;22;19926;-83
2023/03/18 13:39:37;;;;;;;;;;;19.40;98.00;;;;;;6243436;23;20244;-82
2023/03/18 13:42:20;;;;;;;;;;;19.10;99.90;;;;;;6243033;23;19904;-83
2023/03/18 13:44:58;;;;;;;;;;;18.50;99.90;;;;;;6264367;22;20248;-81
2023/03/18 13:47:27;;;;;;;;;;;17.60;99.90;;;;;;6276799;22;19981;-82
2023/03/18 13:50:02;;;;;;;;;;;16.90;99.90;;;;;;6276299;22;19911;-82
2023/03/18 13:52:32;;;;;;;;;;;16.60;99.90;;;;;;6276044;22;19903;-81
2023/03/18 13:55:00;;;;;;;;;;;16.40;99.90;;;;;;6276814;22;19962;-81
2023/03/18 13:57:31;;;;;;;;;;;16.30;99.90;;;;;;6274751;22;19929;-82
2023/03/18 14:00:15;;;;;;;;;;;16.30;99.90;;;;;;6276474;22;19925;-82
2023/03/18 14:02:44;;;;;;;;;;;16.30;99.90;;;;;;6275995;22;19956;-81
2023/03/18 14:05:29;;;;;;;;;;;16.40;99.90;;;;;;6277094;22;19918;-82
2023/03/18 14:07:54;;;;;;;;;;;16.40;99.90;;;;;;6276169;22;20244;-83
2023/03/18 14:10:20;;;;;;;;;;;16.50;99.90;;;;;;6276846;22;19907;-82
2023/03/18 14:12:46;;;;;;;;;;;16.60;99.90;;;;;;6274211;22;19929;-82
2023/03/18 14:15:21;;;;;;;;;;;16.90;99.90;;;;;;6276334;22;19903;-82
2023/03/18 14:17:52;;;;;;;;;;;17.10;99.90;;;;;;6276097;22;20325;-82
2023/03/18 14:20:17;;;;;;;;;;;17.40;99.90;;;;;;6276265;22;19903;-81
2023/03/18 14:23:12;;;;;;;;;;;17.70;99.90;;;;;;6275667;22;19910;-82
2023/03/18 14:25:39;;;;;;;;;;;17.80;99.90;;;;;;6273698;22;19931;-82
2023/03/18 14:28:12;;;;;;;;;;;17.90;99.90;;;;;;6276066;22;19903;-82
2023/03/18 14:30:38;;;;;;;;;;;18.10;99.90;;;;;;6274425;22;19922;-81
2023/03/18 14:33:05;;;;;;;;;;;18.40;99.90;;;;;;6275762;22;19907;-82
2023/03/18 14:35:34;;;;;;;;;;;18.80;99.90;;;;;;6276043;22;20280;-82
2023/03/18 14:38:02;;;;;;;;;;;19.60;99.90;;;;;;6274697;22;19918;-82
2023/03/18 14:40:29;;;;;;;;;;;20.30;99.90;;;;;;6276320;22;20342;-82
2023/03/18 14:42:57;;;;;;;;;;;21.00;99.90;;;;;;6275664;22;19904;-83
2023/03/18 14:45:33;;;;;;;;;;;23.10;99.90;;;;;;6276535;22;20249;-82
2023/03/18 14:48:03;;;;;;;;;;;25.60;99.90;;;;;;6274524;22;19974;-84
2023/03/18 14:50:33;;;;;;;;;;;28.00;96.90;;;;;;6276095;22;19994;-83
2023/03/18 14:53:21;;;;;;;;;;;29.50;91.50;;;;;;6276874;22;19910;-83
2023/03/18 14:55:47;;;;;;;;;;;30.10;81.40;;;;;;6276104;22;19904;-83
2023/03/18 14:58:16;;;;;;;;;;;30.60;77.30;;;;;;6276359;22;20289;-82
2023/03/18 15:00:42;;;;;;;;;;;30.90;63.70;;;;;;6275170;22;20336;-83
2023/03/18 15:03:15;;;;;;;;;;;30.70;62.80;;;;;;6275738;22;19907;-83
2023/03/18 15:05:41;;;;;;;;;;;28.20;57.70;;;;;;6276100;22;19978;-83
2023/03/18 15:08:09;;;;;;;;;;;26.50;61.70;;;;;;6276213;22;19912;-83
2023/03/18 15:10:35;;;;;;;;;;;26.50;68.30;;;;;;6276332;22;20320;-84
2023/03/18 15:13:03;;;;;;;;;;;27.80;65.60;;;;;;6276139;22;19904;-84
2023/03/18 15:15:28;;;;;;;;;;;29.10;64.20;;;;;;6274726;22;19903;-84
2023/03/18 15:17:54;;;;;;;;;;;28.50;60.00;;;;;;6276048;22;19911;-83
2023/03/18 15:20:20;;;;;;;;;;;26.40;59.20;;;;;;6277986;22;19929;-83
2023/03/18 15:22:46;;;;;;;;;;;26.20;63.90;;;;;;6280017;22;19986;-84
2023/03/18 15:25:16;;;;;;;;;;;26.30;61.20;;;;;;6280218;22;19914;-83
2023/03/18 15:27:42;;;;;;;;;;;26.60;61.90;;;;;;6276824;22;19903;-83
2023/03/18 15:30:24;;;;;;;;;;;26.80;60.90;;;;;;6278775;22;20356;-83
2023/03/18 15:32:55;;;;;;;;;;;27.40;60.70;;;;;;6276438;22;19903;-83
2023/03/18 15:35:25;;;;;;;;;;;27.80;58.60;;;;;;6279113;22;19933;-83
2023/03/18 15:38:23;;;;;;;;;;;27.80;57.00;;;;;;6278229;22;20233;-82
2023/03/18 15:40:49;;;;;;;;;;;28.00;57.70;;;;;;6210197;22;19904;-83
2023/03/18 15:43:23;;;;;;;;;;;27.10;56.60;;;;;;6277755;22;19903;-82
2023/03/18 15:45:54;;;;;;;;;;;25.90;57.60;;;;;;6277966;22;19903;-82
2023/03/18 15:48:33;;;;;;;;;;;24.70;59.10;;;;;;6278041;22;20321;-83
2023/03/18 15:51:00;;;;;;;;;;;23.70;60.70;;;;;;6277438;22;19956;-82
2023/03/18 15:53:29;;;;;;;;;;;23.00;64.60;;;;;;6277944;22;19907;-83
2023/03/18 15:55:56;;;;;;;;;;;22.60;69.20;;;;;;6276215;22;19957;-83
2023/03/18 15:58:35;;;;;;;;;;;22.00;72.50;;;;;;6277693;22;19903;-82
2023/03/18 16:01:00;;;;;;;;;;;21.50;75.70;;;;;;6277767;22;19943;-82
2023/03/18 16:03:29;;;;;;;;;;;21.10;81.20;;;;;;6278480;22;19929;-82
2023/03/18 16:05:55;;;;;;;;;;;20.80;84.60;;;;;;6276639;22;20403;-83
2023/03/18 16:08:21;;;;;;;;;;;20.50;85.80;;;;;;6278003;22;19907;-82
2023/03/18 16:10:48;;;;;;;;;;;20.30;90.60;;;;;;6276036;22;19945;-83
2023/03/18 16:13:19;;;;;;;;;;;20.20;91.50;;;;;;6277755;22;19904;-82
2023/03/18 16:15:44;;;;;;;;;;;20.10;93.10;;;;;;6277698;22;19904;-83
2023/03/18 16:18:11;;;;;;;;;;;19.90;93.20;;;;;;6277771;22;20245;-82
2023/03/18 16:20:37;;;;;;;;;;;19.80;95.00;;;;;;6278123;22;19903;-83
2023/03/18 16:23:03;;;;;;;;;;;19.70;95.70;;;;;;6277648;22;20222;-83
2023/03/18 16:25:28;;;;;;;;;;;19.50;95.90;;;;;;6277988;22;20248;-83
2023/03/18 16:27:55;;;;;;;;;;;19.40;96.30;;;;;;6277508;22;19904;-82
2023/03/18 16:30:22;;;;;;;;;;;19.40;97.30;;;;;;6277581;22;19907;-83
2023/03/18 16:32:48;;;;;;;;;;;19.30;97.70;;;;;;6275352;22;19908;-82
2023/03/18 16:35:14;;;;;;;;;;;19.10;98.60;;;;;;6277676;22;19909;-84
2023/03/18 16:37:41;;;;;;;;;;;18.90;99.90;;;;;;6277326;22;20329;-82
2023/03/18 16:40:16;;;;;;;;;;;18.70;99.90;;;;;;6279686;22;19904;-82
2023/03/18 16:42:42;;;;;;;;;;;18.50;99.90;;;;;;6277465;22;20512;-83
2023/03/18 16:45:18;;;;;;;;;;;18.50;99.90;;;;;;6277397;22;19911;-83
2023/03/18 16:47:45;;;;;;;;;;;18.40;99.90;;;;;;6277342;22;19930;-82
2023/03/18 16:50:18;;;;;;;;;;;18.30;99.90;;;;;;6275739;22;19903;-82
2023/03/18 16:52:43;;;;;;;;;;;18.20;99.90;;;;;;6277516;22;19918;-83
2023/03/18 16:55:13;;;;;;;;;;;18.20;99.90;;;;;;6278253;22;19903;-82
2023/03/18 16:57:39;;;;;;;;;;;18.10;99.90;;;;;;6277445;22;20269;-81
2023/03/18 17:00:31;;;;;;;;;;;18.00;99.90;;;;;;6277523;22;19914;-82
2023/03/18 17:02:57;;;;;;;;;;;17.90;99.90;;;;;;6268058;22;19903;-82
2023/03/18 17:05:23;;;;;;;;;;;17.70;99.90;;;;;;6277282;22;19903;-82
2023/03/18 17:07:49;;;;;;;;;;;17.60;99.90;;;;;;6277255;22;19903;-82
2023/03/18 17:10:17;;;;;;;;;;;17.50;99.90;;;;;;6277520;22;19937;-82
2023/03/18 17:12:45;;;;;;;;;;;17.40;99.90;;;;;;6276481;22;20391;-82
2023/03/18 17:15:13;;;;;;;;;;;17.40;99.90;;;;;;6277210;22;20241;-81
2023/03/18 17:17:39;;;;;;;;;;;17.30;99.90;;;;;;6277278;22;20329;-81
2023/03/18 17:20:14;;;;;;;;;;;17.30;99.90;;;;;;6276903;22;19914;-81
2023/03/18 17:22:39;;;;;;;;;;;17.10;99.90;;;;;;6276697;22;19926;-87
2023/03/18 17:25:05;;;;;;;;;;;17.00;99.90;;;;;;6277043;22;19903;-81
2023/03/18 17:27:32;;;;;;;;;;;16.90;99.90;;;;;;6277290;22;19907;-80
2023/03/18 17:29:58;;;;;;;;;;;16.80;99.90;;;;;;6272584;22;19903;-80
2023/03/18 17:32:24;;;;;;;;;;;16.70;99.90;;;;;;6275809;22;19949;-80
2023/03/18 17:34:50;;;;;;;;;;;16.60;99.90;;;;;;6276409;22;19903;-80
2023/03/18 17:37:16;;;;;;;;;;;16.50;99.90;;;;;;6276500;22;19911;-80
2023/03/18 17:39:42;;;;;;;;;;;16.40;99.90;;;;;;6276715;22;19919;-81
2023/03/18 17:42:23;;;;;;;;;;;16.30;99.90;;;;;;6276861;22;19982;-80
2023/03/18 17:44:49;;;;;;;;;;;16.30;99.90;;;;;;6273868;22;19903;-80
2023/03/18 17:47:14;;;;;;;;;;;16.20;99.90;;;;;;6276856;22;19903;-80
2023/03/18 17:49:40;;;;;;;;;;;16.10;99.90;;;;;;6276835;22;19903;-80
2023/03/18 17:52:07;;;;;;;;;;;16.00;99.90;;;;;;6275950;22;19932;-80
2023/03/18 17:54:33;;;;;;;;;;;16.00;99.90;;;;;;6277290;22;19952;-81
2023/03/18 17:56:58;;;;;;;;;;;15.90;99.90;;;;;;6276999;22;19904;-81
2023/03/18 17:59:26;;;;;;;;;;;15.80;99.90;;;;;;6276336;22;19914;-80
2023/03/18 18:01:51;;;;;;;;;;;15.70;99.90;;;;;;6275915;22;19907;-80
2023/03/18 18:04:18;;;;;;;;;;;15.60;99.90;;;;;;6274981;22;20344;-80
2023/03/18 18:06:44;;;;;;;;;;;15.60;99.90;;;;;;6276868;22;19958;-80
2023/03/18 18:09:14;;;;;;;;;;;15.50;99.90;;;;;;6277271;22;19909;-80
2023/03/18 18:11:43;;;;;;;;;;;15.50;99.90;;;;;;6275734;22;19903;-80
2023/03/18 18:14:08;;;;;;;;;;;15.40;99.90;;;;;;6276637;22;20360;-80
2023/03/18 18:16:34;;;;;;;;;;;15.40;99.90;;;;;;6274901;22;19903;-80
2023/03/18 18:19:00;;;;;;;;;;;15.40;99.90;;;;;;6276802;22;19904;-80
2023/03/18 18:21:26;;;;;;;;;;;15.30;99.90;;;;;;6275351;22;19973;-80
2023/03/18 18:23:52;;;;;;;;;;;15.30;99.90;;;;;;6276678;22;19911;-80
2023/03/18 18:26:18;;;;;;;;;;;15.30;99.90;;;;;;6275145;22;19978;-80
2023/03/18 18:28:46;;;;;;;;;;;15.30;99.90;;;;;;6276262;22;20277;-80
2023/03/18 18:31:11;;;;;;;;;;;15.20;99.90;;;;;;6275430;22;19919;-80
2023/03/18 18:33:38;;;;;;;;;;;15.20;99.90;;;;;;6275893;22;19903;-80
2023/03/18 18:36:04;;;;;;;;;;;15.20;99.90;;;;;;6276042;22;20238;-80
2023/03/18 18:38:30;;;;;;;;;;;15.10;99.90;;;;;;6276889;22;19904;-80
2023/03/18 18:40:56;;;;;;;;;;;15.10;99.90;;;;;;6276472;22;19994;-80
2023/03/18 18:43:22;;;;;;;;;;;15.00;99.90;;;;;;6275954;22;20630;-80
2023/03/18 18:45:48;;;;;;;;;;;15.00;99.90;;;;;;6274675;22;19956;-80
2023/03/18 18:48:15;;;;;;;;;;;15.00;99.90;;;;;;6275764;22;20240;-80
2023/03/18 18:50:41;;;;;;;;;;;14.90;99.90;;;;;;6275986;22;19981;-80
2023/03/18 18:53:21;;;;;;;;;;;14.90;99.90;;;;;;6273531;22;19929;-80
2023/03/18 18:55:48;;;;;;;;;;;14.90;99.90;;;;;;6275928;22;20240;-80
2023/03/18 18:58:16;;;;;;;;;;;14.90;99.90;;;;;;6275784;22;19913;-80
2023/03/18 19:00:42;;;;;;;;;;;14.90;99.90;;;;;;6273508;22;20249;-80
2023/03/18 19:03:12;;;;;;;;;;;14.90;99.90;;;;;;6275943;22;19903;-80
2023/03/18 19:05:37;;;;;;;;;;;14.90;99.90;;;;;;6279168;22;19903;-81
2023/03/18 19:08:03;;;;;;;;;;;14.90;99.90;;;;;;6277293;22;19966;-80
2023/03/18 19:10:29;;;;;;;;;;;14.80;99.90;;;;;;6276388;22;20321;-80
2023/03/18 19:12:54;;;;;;;;;;;14.80;99.90;;;;;;6275852;22;19910;-80
2023/03/18 19:15:20;;;;;;;;;;;14.70;99.90;;;;;;6274013;22;19954;-80
2023/03/18 19:17:46;;;;;;;;;;;14.70;99.90;;;;;;6274606;22;19910;-80
2023/03/18 19:20:26;;;;;;;;;;;14.50;99.90;;;;;;6276031;22;19907;-80
2023/03/18 19:22:52;;;;;;;;;;;14.50;99.90;;;;;;6275833;22;19903;-80
2023/03/18 19:25:18;;;;;;;;;;;14.40;99.90;;;;;;6274749;22;19903;-80
2023/03/18 19:27:44;;;;;;;;;;;14.30;99.90;;;;;;6274571;22;20210;-80
2023/03/18 19:30:36;;;;;;;;;;;14.20;99.90;;;;;;6274594;22;19935;-80
2023/03/18 19:33:01;;;;;;;;;;;14.20;99.90;;;;;;6269919;22;19935;-79
2023/03/18 19:35:27;;;;;;;;;;;14.10;99.90;;;;;;6274403;22;19903;-80
2023/03/18 19:37:53;;;;;;;;;;;14.00;99.90;;;;;;6275910;22;19903;-80
2023/03/18 19:40:20;;;;;;;;;;;13.90;99.90;;;;;;6276060;22;19988;-80
2023/03/18 19:42:46;;;;;;;;;;;13.80;99.90;;;;;;6273926;22;20321;-80
2023/03/18 19:45:12;;;;;;;;;;;13.70;99.90;;;;;;6275973;22;19903;-80
2023/03/18 19:47:37;;;;;;;;;;;13.60;99.90;;;;;;6276765;22;20325;-80
2023/03/18 19:50:12;;;;;;;;;;;13.60;99.90;;;;;;6277012;22;19910;-80
2023/03/18 19:52:37;;;;;;;;;;;13.50;99.90;;;;;;6276107;22;19903;-80
2023/03/18 19:55:07;;;;;;;;;;;13.50;99.90;;;;;;6276603;22;20648;-80
2023/03/18 19:57:32;;;;;;;;;;;13.50;99.90;;;;;;6276698;22;19903;-80
2023/03/18 19:59:59;;;;;;;;;;;13.50;99.90;;;;;;6276435;22;19907;-80
2023/03/18 20:02:29;;;;;;;;;;;13.50;99.90;;;;;;6276019;22;20225;-80
2023/03/18 20:04:58;;;;;;;;;;;13.50;99.90;;;;;;6276397;22;19903;-80
2023/03/18 20:07:26;;;;;;;;;;;13.50;99.90;;;;;;6277584;22;19922;-80
2023/03/18 20:09:52;;;;;;;;;;;13.50;99.90;;;;;;6276804;22;19908;-80
2023/03/18 20:12:36;;;;;;;;;;;13.50;99.90;;;;;;6277648;22;19978;-80
2023/03/18 20:15:03;;;;;;;;;;;13.50;99.90;;;;;;6278003;22;19923;-80
2023/03/18 20:17:28;;;;;;;;;;;13.40;99.90;;;;;;6277890;22;19942;-80
2023/03/18 20:19:54;;;;;;;;;;;13.50;99.90;;;;;;6278269;22;20321;-80
2023/03/18 20:22:34;;;;;;;;;;;13.40;99.90;;;;;;6279729;22;19923;-80
2023/03/18 20:25:00;;;;;;;;;;;13.50;99.90;;;;;;6280503;22;19911;-81
2023/03/18 20:27:26;;;;;;;;;;;13.50;99.90;;;;;;6278703;22;20241;-80
2023/03/18 20:29:51;;;;;;;;;;;13.50;99.90;;;;;;6278196;22;19903;-80
2023/03/18 20:32:17;;;;;;;;;;;13.60;99.90;;;;;;6278277;22;20317;-81
2023/03/18 20:34:42;;;;;;;;;;;13.60;99.90;;;;;;6279953;22;19904;-80